createdAt,value
2022-08-27T00:01:22.574Z,63.50
2022-08-27T00:09:28.021Z,64.20
2022-08-27T00:12:53.021Z,62.70
2022-08-27T00:15:59.221Z,61.80
2022-08-27T00:19:03.970Z,61.90
2022-08-27T00:22:28.417Z,61.30
2022-08-27T00:36:40.565Z,64.70
2022-08-27T00:40:27.261Z,67.00
2022-08-27T00:43:44.342Z,66.20
2022-08-27T00:47:40.240Z,65.00
2022-08-27T00:50:46.087Z,65.40
2022-08-27T00:53:44.962Z,66.50
2022-08-27T01:00:46.382Z,66.20
2022-08-27T01:14:02.505Z,67.20
2022-08-27T01:18:00.086Z,66.90
2022-08-27T01:21:22.216Z,66.40
2022-08-27T01:24:27.344Z,65.90
2022-08-27T01:27:31.637Z,65.90
2022-08-27T01:30:54.700Z,66.20
2022-08-27T01:34:31.930Z,67.70
2022-08-27T01:37:42.437Z,67.90
2022-08-27T01:48:01.466Z,67.10
2022-08-27T01:51:09.135Z,68.00
2022-08-27T01:53:51.372Z,67.90
2022-08-27T01:56:29.326Z,69.00
2022-08-27T01:59:39.860Z,69.80
2022-08-27T02:02:16.882Z,71.00
2022-08-27T02:20:10.021Z,69.60
2022-08-27T02:27:04.604Z,68.10
2022-08-27T02:29:52.174Z,68.70
2022-08-27T02:32:59.858Z,68.80
2022-08-27T02:35:56.524Z,68.60
2022-08-27T02:38:42.163Z,68.40
2022-08-27T02:41:37.141Z,68.20
2022-08-27T02:44:35.094Z,67.90
2022-08-27T02:47:18.961Z,67.80
2022-08-27T02:50:07.225Z,67.60
2022-08-27T02:52:41.857Z,68.30
2022-08-27T02:56:21.688Z,68.50
2022-08-27T02:58:34.970Z,69.80
2022-08-27T03:01:36.894Z,70.00
2022-08-27T03:04:13.335Z,71.30
2022-08-27T03:07:07.229Z,72.90
2022-08-27T03:09:56.534Z,73.00
2022-08-27T03:15:38.027Z,72.20
2022-08-27T03:18:21.809Z,71.00
2022-08-27T03:21:01.452Z,70.90
2022-08-27T03:30:51.940Z,71.40
2022-08-27T03:33:36.257Z,71.50
2022-08-27T03:36:26.522Z,72.20
2022-08-27T03:39:24.337Z,71.10
2022-08-27T03:42:02.834Z,69.50
2022-08-27T03:45:03.915Z,69.50
2022-08-27T03:47:53.042Z,69.40
2022-08-27T03:50:48.840Z,69.00
2022-08-27T03:53:39.754Z,68.70
2022-08-27T03:56:12.339Z,68.30
2022-08-27T03:58:44.813Z,68.70
2022-08-27T04:01:22.297Z,68.80
2022-08-27T04:04:09.175Z,69.10
2022-08-27T04:07:07.058Z,68.50
2022-08-27T04:10:10.166Z,69.40
2022-08-27T04:13:13.437Z,69.80
2022-08-27T04:16:00.863Z,68.60
2022-08-27T04:19:00.644Z,69.30
2022-08-27T04:21:37.415Z,68.70
2022-08-27T04:24:14.109Z,68.40
2022-08-27T04:26:50.876Z,69.20
2022-08-27T04:29:43.937Z,70.10
2022-08-27T04:32:29.436Z,70.20
2022-08-27T04:35:12.083Z,70.20
2022-08-27T04:37:52.440Z,69.40
2022-08-27T04:40:48.930Z,69.80
2022-08-27T04:43:25.526Z,70.00
2022-08-27T04:46:10.225Z,71.20
2022-08-27T04:48:48.510Z,71.10
2022-08-27T04:51:34.972Z,71.30
2022-08-27T04:54:32.167Z,70.10
2022-08-27T04:57:09.559Z,70.20
2022-08-27T05:00:01.208Z,69.90
2022-08-27T05:02:58.092Z,69.10
2022-08-27T05:05:54.169Z,69.90
2022-08-27T05:08:35.092Z,70.00
2022-08-27T05:11:31.244Z,70.90
2022-08-27T05:14:32.203Z,71.10
2022-08-27T05:17:20.807Z,71.50
2022-08-27T05:20:37.384Z,71.80
2022-08-27T05:23:50.035Z,72.30
2022-08-27T05:26:31.404Z,73.30
2022-08-27T05:29:21.300Z,73.00
2022-08-27T05:32:31.310Z,73.00
2022-08-27T05:35:39.567Z,72.80
2022-08-27T05:38:59.340Z,72.30
2022-08-27T05:41:43.718Z,73.10
2022-08-27T05:44:49.285Z,73.20
2022-08-27T05:47:37.507Z,73.20
2022-08-27T05:50:41.798Z,73.10
2022-08-27T05:53:37.107Z,73.30
2022-08-27T05:57:17.500Z,73.60
2022-08-27T06:03:55.528Z,76.90
2022-08-27T06:07:13.903Z,76.60
2022-08-27T06:10:24.879Z,75.90
2022-08-27T06:13:31.174Z,76.00
2022-08-27T06:16:56.674Z,76.00
2022-08-27T06:20:24.405Z,75.90
2022-08-27T06:23:27.984Z,74.60
2022-08-27T06:29:39.391Z,74.30
2022-08-27T06:32:57.684Z,74.60
2022-08-27T06:36:22.596Z,74.40
2022-08-27T06:39:44.340Z,75.70
2022-08-27T06:46:10.798Z,75.20
2022-08-27T06:49:14.780Z,74.80
2022-08-27T06:52:29.744Z,74.80
2022-08-27T06:55:08.967Z,73.70
2022-08-27T06:58:14.931Z,72.50
2022-08-27T07:01:27.434Z,72.40
2022-08-27T07:04:46.949Z,72.40
2022-08-27T07:07:50.821Z,72.10
2022-08-27T07:10:38.905Z,72.40
2022-08-27T07:14:01.868Z,71.20
2022-08-27T07:16:48.176Z,71.40
2022-08-27T07:19:44.258Z,70.10
2022-08-27T07:22:46.122Z,71.10
2022-08-27T07:25:57.146Z,71.70
2022-08-27T07:29:16.849Z,70.70
2022-08-27T07:32:31.291Z,70.70
2022-08-27T07:35:30.594Z,71.20
2022-08-27T07:38:36.136Z,69.60
2022-08-27T07:41:32.436Z,70.70
2022-08-27T07:44:40.215Z,73.60
2022-08-27T07:50:49.557Z,72.50
2022-08-27T07:57:00.024Z,71.80
2022-08-27T07:59:53.058Z,71.90
2022-08-27T08:02:47.950Z,71.90
2022-08-27T08:06:03.444Z,70.00
2022-08-27T08:12:48.541Z,71.60
2022-08-27T08:15:41.195Z,70.90
2022-08-27T08:18:49.781Z,68.60
2022-08-27T08:21:41.739Z,72.30
2022-08-27T08:24:37.672Z,70.70
2022-08-27T08:31:06.688Z,70.40
2022-08-27T08:34:23.786Z,71.10
2022-08-27T08:37:19.844Z,72.80
2022-08-27T08:40:17.899Z,73.80
2022-08-27T08:43:13.707Z,72.30
2022-08-27T08:46:29.234Z,71.70
2022-08-27T08:53:13.745Z,73.30
2022-08-27T08:56:25.617Z,71.40
2022-08-27T08:59:33.988Z,72.20
2022-08-27T09:02:42.218Z,71.30
2022-08-27T09:08:50.864Z,69.90
2022-08-27T09:12:32.828Z,69.60
2022-08-27T09:15:02.112Z,69.90
2022-08-27T09:18:38.618Z,68.90
2022-08-27T11:10:01.380Z,68.90
2022-08-27T11:14:58.722Z,69.00
2022-08-27T11:28:02.186Z,68.50
2022-08-27T11:35:43.681Z,68.90
2022-08-27T11:39:39.239Z,68.90
2022-08-27T11:42:48.517Z,68.90
2022-08-27T11:46:19.206Z,69.00
2022-08-27T11:49:30.707Z,68.90
2022-08-27T11:53:52.447Z,68.30
2022-08-27T11:58:00.185Z,67.70
2022-08-27T12:19:25.514Z,64.40
2022-08-27T12:24:16.113Z,64.50
2022-08-27T12:48:30.912Z,62.70
2022-08-27T13:05:10.159Z,64.10
2022-08-27T15:44:46.925Z,79.10
2022-08-27T16:00:28.086Z,70.10
2022-08-27T16:07:16.203Z,70.60
2022-08-27T16:19:46.321Z,66.10
2022-08-27T16:23:41.054Z,67.10
2022-08-27T16:27:48.648Z,67.60
2022-08-27T16:31:41.178Z,67.60
2022-08-27T16:35:02.876Z,68.90
2022-08-27T16:42:17.224Z,69.30
2022-08-27T16:50:03.281Z,66.50
2022-08-27T16:53:38.887Z,64.90
2022-08-27T17:04:21.547Z,66.20
2022-08-27T17:08:04.182Z,66.30
2022-08-27T17:11:58.045Z,65.80
2022-08-27T17:18:54.719Z,65.00
2022-08-27T17:22:31.805Z,65.20
2022-08-27T17:33:41.455Z,64.90
2022-08-27T17:55:39.102Z,66.00
2022-08-27T18:08:25.741Z,67.10
2022-08-27T18:12:04.832Z,68.20
2022-08-27T18:15:45.781Z,68.10
2022-08-27T18:31:36.365Z,67.40
2022-08-27T18:35:15.704Z,68.20
2022-08-27T18:44:00.503Z,68.60
2022-08-27T18:47:42.935Z,70.00
2022-08-27T19:00:06.148Z,73.80
2022-08-27T19:04:20.740Z,74.20
2022-08-27T19:08:25.503Z,73.70
2022-08-27T19:40:12.742Z,72.50
2022-08-27T20:18:17.845Z,73.50
2022-08-27T20:21:46.333Z,73.50
2022-08-27T20:25:36.635Z,73.40
2022-08-27T20:29:32.828Z,73.40
2022-08-27T20:33:15.165Z,73.00
2022-08-27T20:36:12.008Z,72.80
2022-08-27T20:40:15.035Z,73.30
2022-08-27T20:55:16.095Z,73.30
2022-08-27T20:59:24.175Z,73.20
2022-08-27T21:03:17.514Z,72.60
2022-08-27T21:10:39.225Z,71.30
2022-08-27T21:13:55.215Z,71.20
2022-08-27T21:22:47.830Z,74.80
